createdAt,value
2019-01-21T00:00:54.712Z,40.00
2019-01-21T00:03:25.072Z,40.43
2019-01-21T00:05:55.463Z,40.80
2019-01-21T00:08:25.784Z,39.90
2019-01-21T00:10:56.240Z,40.20
2019-01-21T00:13:26.769Z,40.67
2019-01-21T00:15:57.150Z,40.60
2019-01-21T00:18:30.995Z,41.73
2019-01-21T00:21:13.430Z,40.03
2019-01-21T00:23:43.799Z,41.60
2019-01-21T00:26:14.195Z,41.23
2019-01-21T00:28:46.246Z,40.10
2019-01-21T00:31:18.263Z,40.90
2019-01-21T00:33:48.612Z,39.73
2019-01-21T00:36:18.984Z,41.37
2019-01-21T00:38:49.349Z,40.23
2019-01-21T00:41:19.714Z,41.03
2019-01-21T00:43:50.119Z,41.67
2019-01-21T00:46:20.506Z,40.67
2019-01-21T00:48:50.868Z,40.43
2019-01-21T00:51:21.253Z,41.63
2019-01-21T00:53:53.217Z,40.93
2019-01-21T00:56:23.610Z,39.97
2019-01-21T00:58:53.999Z,41.53
2019-01-21T01:01:24.391Z,42.10
2019-01-21T01:03:54.954Z,42.03
2019-01-21T01:06:25.497Z,40.33
2019-01-21T01:08:56.769Z,40.07
2019-01-21T01:11:27.183Z,40.07
2019-01-21T01:13:58.504Z,40.97
2019-01-21T01:16:28.874Z,40.13
2019-01-21T01:18:59.257Z,39.57
2019-01-21T01:21:29.722Z,41.30
2019-01-21T01:24:00.168Z,40.97
2019-01-21T01:26:31.464Z,41.55
2019-01-21T01:29:01.805Z,40.37
2019-01-21T01:31:32.191Z,39.80
2019-01-21T01:34:02.593Z,41.13
2019-01-21T01:36:32.972Z,40.30
2019-01-21T01:39:04.174Z,39.57
2019-01-21T01:41:34.789Z,40.70
2019-01-21T01:44:05.650Z,40.67
2019-01-21T01:46:36.048Z,41.37
2019-01-21T01:49:06.458Z,40.53
2019-01-21T01:51:37.188Z,40.43
2019-01-21T01:54:07.566Z,39.83
2019-01-21T01:56:37.945Z,40.30
2019-01-21T01:59:08.323Z,40.43
2019-01-21T02:01:38.717Z,39.30
2019-01-21T02:04:09.126Z,40.37
2019-01-21T02:06:39.643Z,41.10
2019-01-21T02:09:10.059Z,39.23
2019-01-21T02:11:40.921Z,38.13
2019-01-21T02:14:11.529Z,37.65
2019-01-21T02:16:45.198Z,37.83
2019-01-21T02:19:15.715Z,38.50
2019-01-21T02:21:46.473Z,38.20
2019-01-21T02:24:17.934Z,37.97
2019-01-21T02:27:12.890Z,37.93
2019-01-21T02:30:22.519Z,38.87
2019-01-21T02:33:30.193Z,38.10
2019-01-21T02:36:46.679Z,37.97
2019-01-21T02:39:31.207Z,38.77
2019-01-21T02:42:25.276Z,38.27
2019-01-21T02:45:25.326Z,39.47
2019-01-21T02:48:41.606Z,37.40
2019-01-21T02:52:20.517Z,37.50
2019-01-21T02:55:08.791Z,38.37
2019-01-21T02:58:24.313Z,36.07
2019-01-21T03:01:13.195Z,36.87
2019-01-21T03:04:37.188Z,38.23
2019-01-21T03:07:23.812Z,36.40
2019-01-21T03:10:04.485Z,36.87
2019-01-21T03:13:28.223Z,38.10
2019-01-21T03:16:51.730Z,38.13
2019-01-21T03:20:09.481Z,38.37
2019-01-21T03:23:10.884Z,37.97
2019-01-21T03:26:18.461Z,38.70
2019-01-21T03:29:28.176Z,38.50
2019-01-21T03:32:35.557Z,37.60
2019-01-21T03:35:19.506Z,37.77
2019-01-21T03:38:33.882Z,37.53
2019-01-21T03:41:45.461Z,38.97
2019-01-21T03:44:51.199Z,38.33
2019-01-21T03:47:54.783Z,38.20
2019-01-21T03:50:48.390Z,38.70
2019-01-21T03:53:49.922Z,37.60
2019-01-21T03:56:28.047Z,38.30
2019-01-21T03:59:23.349Z,38.00
2019-01-21T04:02:42.919Z,36.77
2019-01-21T04:05:57.314Z,36.87
2019-01-21T04:09:20.167Z,37.30
2019-01-21T04:12:22.125Z,36.37
2019-01-21T04:15:31.003Z,38.33
2019-01-21T04:18:24.534Z,35.93
2019-01-21T04:21:26.307Z,37.50
2019-01-21T04:24:43.362Z,37.93
2019-01-21T04:27:41.809Z,34.67
2019-01-21T04:30:36.141Z,37.20
2019-01-21T04:33:59.721Z,36.10
2019-01-21T04:36:41.720Z,37.10
2019-01-21T04:39:30.726Z,37.63
2019-01-21T04:42:33.308Z,37.63
2019-01-21T04:45:23.476Z,38.00
2019-01-21T04:48:32.905Z,36.70
2019-01-21T04:51:41.880Z,36.27
2019-01-21T04:54:34.263Z,35.97
2019-01-21T04:58:00.812Z,36.90
2019-01-21T05:01:21.230Z,38.87
2019-01-21T05:04:25.844Z,37.80
2019-01-21T05:07:41.104Z,37.90
2019-01-21T05:11:20.421Z,39.00
2019-01-21T05:14:10.249Z,36.80
2019-01-21T05:17:04.459Z,39.08
2019-01-21T05:20:03.997Z,38.23
2019-01-21T05:23:04.837Z,37.73
2019-01-21T05:25:52.066Z,36.63
2019-01-21T05:29:22.719Z,38.50
2019-01-21T05:32:16.589Z,44.73
2019-01-21T05:35:26.814Z,36.85
2019-01-21T05:38:19.977Z,39.57
2019-01-21T05:41:12.832Z,38.17
2019-01-21T05:44:28.544Z,38.20
2019-01-21T05:47:54.666Z,39.95
2019-01-21T05:51:16.836Z,39.03
2019-01-21T05:54:07.793Z,37.53
2019-01-21T05:57:11.859Z,36.20
2019-01-21T06:00:32.211Z,37.53
2019-01-21T06:03:15.174Z,35.63
2019-01-21T06:06:38.990Z,36.57
2019-01-21T06:09:49.007Z,34.40
2019-01-21T06:13:06.455Z,35.67
2019-01-21T06:15:52.977Z,35.43
2019-01-21T06:18:46.989Z,36.60
2019-01-21T06:21:43.172Z,36.67
2019-01-21T06:24:31.624Z,38.07
2019-01-21T06:27:50.919Z,38.30
2019-01-21T06:30:49.090Z,35.87
2019-01-21T06:34:20.086Z,38.87
2019-01-21T06:37:13.049Z,36.77
2019-01-21T06:40:29.787Z,35.87
2019-01-21T06:43:21.916Z,36.03
2019-01-21T06:46:42.857Z,36.13
2019-01-21T06:50:03.846Z,35.53
2019-01-21T06:53:06.207Z,35.77
2019-01-21T06:56:29.719Z,37.73
2019-01-21T06:59:37.210Z,36.13
2019-01-21T07:02:51.834Z,35.87
2019-01-21T07:06:09.183Z,36.43
2019-01-21T07:08:56.358Z,37.20
2019-01-21T07:12:10.488Z,37.40
2019-01-21T07:15:01.430Z,37.07
2019-01-21T07:18:08.591Z,37.33
2019-01-21T07:21:22.346Z,37.57
2019-01-21T07:24:53.242Z,36.73
2019-01-21T07:27:39.325Z,36.03
2019-01-21T07:30:25.102Z,36.07
2019-01-21T07:33:19.121Z,37.17
2019-01-21T07:36:34.784Z,35.53
2019-01-21T07:39:50.619Z,35.83
2019-01-21T07:42:48.102Z,36.07
2019-01-21T07:45:42.051Z,35.97
2019-01-21T07:48:43.738Z,36.17
2019-01-21T07:51:46.907Z,36.63
2019-01-21T07:54:45.180Z,35.33
2019-01-21T07:58:10.071Z,37.50
2019-01-21T08:01:06.084Z,39.20
2019-01-21T08:04:12.655Z,37.33
2019-01-21T08:07:35.432Z,34.80
2019-01-21T08:10:44.422Z,37.33
2019-01-21T08:14:09.860Z,34.83
2019-01-21T08:17:08.909Z,34.48
2019-01-21T08:20:22.542Z,35.33
2019-01-21T08:23:40.250Z,35.83
2019-01-21T08:26:40.881Z,37.97
2019-01-21T08:29:55.831Z,36.40
2019-01-21T08:32:54.128Z,34.97
2019-01-21T08:36:21.525Z,39.30
2019-01-21T08:39:23.236Z,38.27
2019-01-21T08:42:12.704Z,34.70
2019-01-21T08:45:10.441Z,35.15
2019-01-21T08:48:09.867Z,32.30
2019-01-21T08:51:19.306Z,33.23
2019-01-21T08:54:04.776Z,37.67
2019-01-21T08:57:20.566Z,34.40
2019-01-21T09:00:18.900Z,35.40
2019-01-21T09:03:16.245Z,34.23
2019-01-21T09:06:39.951Z,32.50
2019-01-21T09:09:38.360Z,37.10
2019-01-21T09:12:48.740Z,35.07
2019-01-21T09:16:09.790Z,35.93
2019-01-21T09:19:00.960Z,35.43
2019-01-21T09:22:04.727Z,34.53
2019-01-21T09:25:40.348Z,33.33
2019-01-21T09:28:47.867Z,34.07
2019-01-21T09:31:55.377Z,32.20
2019-01-21T09:35:02.026Z,32.57
2019-01-21T09:38:11.545Z,34.37
2019-01-21T09:41:04.524Z,33.77
2019-01-21T09:44:14.916Z,32.73
2019-01-21T09:46:50.254Z,34.47
2019-01-21T09:49:19.079Z,33.83
2019-01-21T09:52:10.123Z,34.53
2019-01-21T09:54:41.179Z,32.80
2019-01-21T09:57:20.761Z,36.10
2019-01-21T09:59:59.958Z,37.67
2019-01-21T10:02:40.177Z,36.30
2019-01-21T10:05:13.404Z,34.67
2019-01-21T10:08:06.504Z,33.83
2019-01-21T10:11:15.846Z,35.03
2019-01-21T10:14:23.896Z,34.93
2019-01-21T10:17:50.853Z,34.03
2019-01-21T10:20:38.841Z,36.03
2019-01-21T10:23:57.043Z,36.03
2019-01-21T10:27:13.349Z,35.40
2019-01-21T10:30:13.220Z,36.33
2019-01-21T10:33:18.433Z,37.43
2019-01-21T10:36:21.632Z,35.60
2019-01-21T10:39:38.893Z,36.97
2019-01-21T10:42:31.496Z,37.70
2019-01-21T10:46:01.505Z,36.33
2019-01-21T10:48:57.722Z,36.93
2019-01-21T10:52:20.614Z,37.07
2019-01-21T10:55:15.831Z,36.67
2019-01-21T10:58:02.352Z,35.83
2019-01-21T11:01:15.704Z,40.53
2019-01-21T11:04:12.319Z,68.50
2019-01-21T11:07:29.504Z,41.30
2019-01-21T11:10:44.661Z,35.05
2019-01-21T11:13:54.091Z,36.13
2019-01-21T11:16:43.310Z,39.60
2019-01-21T11:19:44.298Z,40.77
2019-01-21T11:22:24.751Z,42.43
2019-01-21T11:25:38.252Z,41.33
2019-01-21T11:28:17.870Z,38.73
2019-01-21T11:31:23.578Z,39.50
2019-01-21T11:34:20.123Z,39.50
2019-01-21T11:37:03.691Z,38.13
2019-01-21T11:40:18.087Z,37.23
2019-01-21T11:43:13.180Z,36.93
2019-01-21T11:46:12.595Z,36.77
2019-01-21T11:49:14.576Z,37.80
2019-01-21T11:52:24.426Z,36.55
2019-01-21T11:55:43.629Z,36.27
2019-01-21T11:58:51.415Z,36.20
2019-01-21T12:01:58.656Z,38.30
2019-01-21T12:05:09.255Z,37.10
2019-01-21T12:08:16.832Z,35.93
2019-01-21T12:11:28.090Z,48.07
2019-01-21T12:14:22.844Z,35.63
2019-01-21T12:17:41.653Z,36.50
2019-01-21T12:20:28.704Z,42.33
2019-01-21T12:23:17.908Z,49.20
2019-01-21T12:26:05.687Z,52.40
2019-01-21T12:29:29.325Z,38.30
2019-01-21T12:32:52.458Z,41.90
2019-01-21T12:35:53.962Z,38.07
2019-01-21T12:38:53.024Z,40.23
2019-01-21T12:41:36.839Z,48.52
2019-01-21T12:45:00.590Z,41.23
2019-01-21T12:47:48.113Z,42.00
2019-01-21T12:51:01.828Z,40.27
2019-01-21T12:54:09.868Z,41.10
2019-01-21T12:57:13.199Z,43.30
2019-01-21T13:00:01.283Z,41.33
2019-01-21T13:02:52.663Z,39.20
2019-01-21T13:06:02.837Z,40.33
2019-01-21T13:09:14.292Z,40.70
2019-01-21T13:11:58.683Z,39.87
2019-01-21T13:15:07.466Z,40.37
2019-01-21T13:18:20.504Z,44.53
2019-01-21T13:21:34.678Z,40.53
2019-01-21T13:24:12.691Z,39.27
2019-01-21T13:27:16.234Z,39.30
2019-01-21T13:30:11.516Z,40.40
2019-01-21T13:32:59.683Z,38.57
2019-01-21T13:35:51.551Z,39.17
2019-01-21T13:39:18.745Z,39.00
2019-01-21T13:42:29.504Z,38.50
2019-01-21T13:45:46.810Z,38.93
2019-01-21T13:48:46.955Z,46.17
2019-01-21T13:52:04.164Z,38.77
2019-01-21T13:55:20.633Z,36.97
2019-01-21T13:58:29.542Z,37.83
2019-01-21T14:01:24.938Z,36.67
2019-01-21T14:04:28.991Z,37.63
2019-01-21T14:07:36.124Z,38.47
2019-01-21T14:10:46.898Z,43.55
2019-01-21T14:13:39.084Z,39.30
2019-01-21T14:16:54.258Z,37.40
2019-01-21T14:19:54.428Z,36.43
2019-01-21T14:23:12.301Z,36.47
2019-01-21T14:26:30.316Z,35.38
2019-01-21T14:29:34.912Z,36.43
2019-01-21T14:32:29.913Z,35.33
2019-01-21T14:35:56.454Z,36.13
2019-01-21T14:39:05.002Z,37.03
2019-01-21T14:42:08.379Z,36.33
2019-01-21T14:45:34.856Z,36.40
2019-01-21T14:48:27.738Z,35.33
2019-01-21T14:51:30.447Z,35.47
2019-01-21T14:54:23.600Z,36.57
2019-01-21T14:57:09.684Z,39.03
2019-01-21T15:00:22.899Z,36.10
2019-01-21T15:03:40.760Z,36.67
2019-01-21T15:06:35.826Z,36.60
2019-01-21T15:09:35.825Z,37.07
2019-01-21T15:12:41.799Z,36.73
2019-01-21T15:15:33.023Z,38.37
2019-01-21T15:18:37.415Z,42.47
2019-01-21T15:22:04.487Z,47.50
2019-01-21T15:25:21.637Z,41.60
2019-01-21T15:28:28.093Z,38.70
2019-01-21T15:31:31.639Z,43.30
2019-01-21T15:34:45.509Z,40.90
2019-01-21T15:38:08.939Z,44.47
2019-01-21T15:41:08.818Z,48.60
2019-01-21T15:44:06.895Z,39.40
2019-01-21T15:47:21.263Z,42.83
2019-01-21T15:49:58.833Z,40.83
2019-01-21T15:53:19.231Z,45.77
2019-01-21T15:56:23.582Z,39.17
2019-01-21T15:59:44.059Z,39.93
2019-01-21T16:02:45.400Z,42.50
2019-01-21T16:05:56.812Z,41.90
2019-01-21T16:08:52.047Z,46.93
2019-01-21T16:12:10.632Z,42.77
2019-01-21T16:15:11.121Z,41.53
2019-01-21T16:18:01.546Z,55.07
2019-01-21T16:21:18.003Z,53.63
2019-01-21T16:24:40.651Z,47.10
2019-01-21T16:27:20.603Z,47.50
2019-01-21T16:30:21.377Z,45.67
2019-01-21T16:33:26.898Z,46.30
2019-01-21T16:36:21.237Z,47.80
2019-01-21T16:39:07.424Z,46.83
2019-01-21T16:41:52.899Z,46.97
2019-01-21T16:44:23.368Z,48.20
2019-01-21T16:46:53.898Z,54.83
2019-01-21T16:49:24.363Z,53.37
2019-01-21T16:51:54.777Z,55.40
2019-01-21T16:54:25.253Z,51.83
2019-01-21T16:56:55.731Z,51.27
2019-01-21T16:59:26.258Z,51.83
2019-01-21T17:01:56.737Z,55.07
2019-01-21T17:04:27.249Z,56.30
2019-01-21T17:06:58.041Z,51.27
2019-01-21T17:09:28.801Z,52.93
2019-01-21T17:11:59.568Z,52.67
2019-01-21T17:14:30.256Z,55.03
2019-01-21T17:17:00.923Z,54.13
2019-01-21T17:19:31.393Z,59.90
2019-01-21T17:22:01.849Z,61.33
2019-01-21T17:24:32.316Z,68.17
2019-01-21T17:27:03.133Z,59.67
2019-01-21T17:29:33.580Z,59.97
2019-01-21T17:32:03.973Z,66.00
2019-01-21T17:34:35.589Z,63.92
2019-01-21T17:37:06.063Z,63.33
2019-01-21T17:39:36.533Z,60.87
2019-01-21T17:42:06.945Z,63.40
2019-01-21T17:44:37.437Z,60.25
2019-01-21T17:47:08.154Z,62.80
2019-01-21T17:49:38.599Z,60.92
2019-01-21T17:52:09.030Z,64.60
2019-01-21T17:54:39.487Z,68.78
2019-01-21T17:57:09.934Z,69.37
2019-01-21T17:59:40.395Z,80.43
2019-01-21T18:02:11.454Z,70.40
2019-01-21T18:04:42.291Z,69.47
2019-01-21T18:07:12.776Z,68.07
2019-01-21T18:09:43.189Z,69.53
2019-01-21T18:12:13.665Z,67.37
2019-01-21T18:14:44.095Z,71.03
2019-01-21T18:17:14.978Z,66.90
2019-01-21T18:19:45.381Z,65.63
2019-01-21T18:22:15.854Z,66.43
2019-01-21T18:24:47.402Z,81.47
2019-01-21T18:27:17.837Z,74.47
2019-01-21T18:29:48.298Z,70.97
2019-01-21T18:32:18.682Z,65.10
2019-01-21T18:34:49.134Z,67.97
2019-01-21T18:37:19.558Z,62.50
2019-01-21T18:39:52.308Z,60.07
2019-01-21T18:42:22.713Z,84.60
2019-01-21T18:44:53.181Z,70.67
2019-01-21T18:47:23.562Z,73.47
2019-01-21T18:49:53.996Z,75.07
2019-01-21T18:52:24.398Z,79.13
2019-01-21T18:54:54.875Z,71.20
2019-01-21T18:57:25.265Z,72.37
2019-01-21T18:59:55.718Z,71.97
2019-01-21T19:02:26.132Z,77.07
2019-01-21T19:04:56.573Z,67.90
2019-01-21T19:07:26.968Z,62.90
2019-01-21T19:09:57.423Z,61.23
2019-01-21T19:12:27.820Z,59.53
2019-01-21T19:14:59.384Z,63.13
2019-01-21T19:17:30.494Z,62.90
2019-01-21T19:20:01.084Z,63.30
2019-01-21T19:22:31.476Z,59.57
2019-01-21T19:25:02.132Z,61.43
2019-01-21T19:27:33.543Z,69.67
2019-01-21T19:30:04.584Z,64.30
2019-01-21T19:32:35.014Z,64.10
2019-01-21T19:35:07.903Z,71.00
2019-01-21T19:37:38.845Z,74.60
2019-01-21T19:40:12.859Z,68.60
2019-01-21T19:42:43.287Z,66.67
2019-01-21T19:45:14.372Z,67.50
2019-01-21T19:47:44.894Z,68.87
2019-01-21T19:50:17.577Z,68.17
2019-01-21T19:52:48.438Z,73.97
2019-01-21T19:55:30.953Z,69.77
2019-01-21T19:58:01.430Z,72.03
2019-01-21T20:00:32.342Z,88.27
2019-01-21T20:03:02.805Z,77.43
2019-01-21T20:05:33.574Z,94.87
2019-01-21T20:08:04.030Z,94.07
2019-01-21T20:10:34.479Z,80.17
2019-01-21T20:13:05.222Z,86.97
2019-01-21T20:15:35.680Z,85.23
2019-01-21T20:18:06.994Z,82.40
2019-01-21T20:20:39.836Z,89.27
2019-01-21T20:23:10.477Z,84.17
2019-01-21T20:25:41.003Z,76.67
2019-01-21T20:28:11.449Z,83.33
2019-01-21T20:30:41.984Z,84.07
2019-01-21T20:33:12.588Z,95.30
2019-01-21T20:35:43.294Z,82.70
2019-01-21T20:38:13.944Z,82.57
2019-01-21T20:40:44.580Z,94.00
2019-01-21T20:43:15.302Z,82.73
2019-01-21T20:45:45.843Z,83.00
2019-01-21T20:48:16.525Z,85.10
2019-01-21T20:50:47.008Z,81.37
2019-01-21T20:53:17.613Z,78.17
2019-01-21T20:55:48.080Z,78.37
2019-01-21T20:58:18.645Z,74.53
2019-01-21T21:00:49.098Z,70.40
2019-01-21T21:03:19.607Z,68.80
2019-01-21T21:05:50.180Z,67.87
2019-01-21T21:08:20.583Z,73.17
2019-01-21T21:10:51.028Z,64.27
2019-01-21T21:13:21.425Z,63.83
2019-01-21T21:15:52.146Z,62.10
2019-01-21T21:18:22.503Z,62.03
2019-01-21T21:20:54.036Z,59.43
2019-01-21T21:23:24.410Z,62.37
2019-01-21T21:25:54.969Z,58.87
2019-01-21T21:28:29.840Z,64.50
2019-01-21T21:30:59.087Z,68.80
2019-01-21T21:33:29.516Z,79.97
2019-01-21T21:35:59.944Z,71.97
2019-01-21T21:38:30.996Z,75.10
2019-01-21T21:41:01.477Z,67.50
2019-01-21T21:43:31.884Z,69.63
2019-01-21T21:46:02.453Z,72.80
2019-01-21T21:48:32.881Z,77.87
2019-01-21T21:51:03.333Z,73.90
2019-01-21T21:53:35.000Z,77.60
2019-01-21T21:56:05.554Z,76.63
2019-01-21T21:58:35.970Z,76.97
2019-01-21T22:01:06.427Z,72.47
2019-01-21T22:03:36.902Z,79.77
2019-01-21T22:06:07.371Z,75.43
2019-01-21T22:08:37.749Z,80.37
2019-01-21T22:11:08.219Z,76.90
2019-01-21T22:13:38.573Z,74.70
2019-01-21T22:16:09.013Z,75.67
2019-01-21T22:18:39.433Z,75.17
2019-01-21T22:21:09.874Z,76.77
2019-01-21T22:23:40.242Z,74.73
2019-01-21T22:26:10.627Z,75.67
2019-01-21T22:28:41.029Z,81.87
2019-01-21T22:31:11.442Z,81.50
2019-01-21T22:33:41.847Z,78.37
2019-01-21T22:36:12.183Z,81.80
2019-01-21T22:38:42.588Z,78.13
2019-01-21T22:41:13.146Z,89.33
2019-01-21T22:43:43.574Z,87.37
2019-01-21T22:46:17.334Z,89.53
2019-01-21T22:48:50.474Z,78.40
2019-01-21T22:51:23.450Z,73.83
2019-01-21T22:53:56.280Z,67.90
2019-01-21T22:56:28.988Z,67.53
2019-01-21T22:58:59.554Z,75.87
2019-01-21T23:01:35.684Z,69.70
2019-01-21T23:04:08.402Z,76.87
2019-01-21T23:06:41.786Z,72.53
2019-01-21T23:09:15.986Z,79.73
2019-01-21T23:11:46.957Z,73.83
2019-01-21T23:14:17.622Z,70.53
2019-01-21T23:16:48.443Z,80.63
2019-01-21T23:19:20.974Z,77.57
2019-01-21T23:21:51.574Z,75.47
2019-01-21T23:24:22.028Z,72.93
2019-01-21T23:26:52.505Z,71.30
2019-01-21T23:29:22.891Z,67.27
2019-01-21T23:31:53.493Z,67.23
2019-01-21T23:34:23.919Z,68.43
2019-01-21T23:36:54.529Z,70.43
2019-01-21T23:39:24.977Z,66.70
2019-01-21T23:41:55.742Z,65.27
2019-01-21T23:44:26.210Z,67.60
2019-01-21T23:46:56.633Z,63.67
2019-01-21T23:49:27.100Z,63.57
2019-01-21T23:51:57.749Z,63.80
2019-01-21T23:54:28.541Z,63.87
2019-01-21T23:57:01.008Z,59.80
2019-01-21T23:59:31.027Z,59.30
